sensor_id;sensor_type;location;lat;lon;timestamp;pressure;altitude;pressure_sealevel;temperature;humidity
19789;BME280;10054;59.332;18.244;2023-05-07T00:01:43;102489.05;;;1.44;83.18
19789;BME280;10054;59.332;18.244;2023-05-07T00:04:12;102490.34;;;1.41;82.91
19789;BME280;10054;59.332;18.244;2023-05-07T00:06:41;102495.95;;;1.39;83.03
19789;BME280;10054;59.332;18.244;2023-05-07T00:09:10;102485.55;;;1.38;83.41
19789;BME280;10054;59.332;18.244;2023-05-07T00:11:38;102488.58;;;1.37;83.46
19789;BME280;10054;59.332;18.244;2023-05-07T00:14:08;102488.58;;;1.37;83.85
19789;BME280;10054;59.332;18.244;2023-05-07T00:16:37;102489.00;;;1.35;84.22
19789;BME280;10054;59.332;18.244;2023-05-07T00:19:06;102493.34;;;1.36;84.55
19789;BME280;10054;59.332;18.244;2023-05-07T00:21:36;102492.91;;;1.35;84.70
19789;BME280;10054;59.332;18.244;2023-05-07T00:24:06;102494.17;;;1.30;84.61
19789;BME280;10054;59.332;18.244;2023-05-07T00:26:36;102491.99;;;1.27;84.91
19789;BME280;10054;59.332;18.244;2023-05-07T00:29:05;102491.97;;;1.24;85.04
19789;BME280;10054;59.332;18.244;2023-05-07T00:31:34;102486.31;;;1.20;85.02
19789;BME280;10054;59.332;18.244;2023-05-07T00:34:03;102488.02;;;1.16;85.21
19789;BME280;10054;59.332;18.244;2023-05-07T00:36:32;102489.30;;;1.13;85.57
19789;BME280;10054;59.332;18.244;2023-05-07T00:39:01;102487.56;;;1.12;85.52
19789;BME280;10054;59.332;18.244;2023-05-07T00:41:31;102491.02;;;1.10;85.80
19789;BME280;10054;59.332;18.244;2023-05-07T00:44:00;102494.47;;;1.07;86.15
19789;BME280;10054;59.332;18.244;2023-05-07T00:46:31;102494.89;;;1.07;86.15
19789;BME280;10054;59.332;18.244;2023-05-07T00:49:01;102491.83;;;1.03;86.74
19789;BME280;10054;59.332;18.244;2023-05-07T00:51:31;102497.01;;;0.99;86.49
19789;BME280;10054;59.332;18.244;2023-05-07T00:54:02;102496.12;;;0.97;86.49
19789;BME280;10054;59.332;18.244;2023-05-07T00:56:32;102496.97;;;0.93;86.52
19789;BME280;10054;59.332;18.244;2023-05-07T00:59:02;102502.59;;;0.93;86.87
19789;BME280;10054;59.332;18.244;2023-05-07T01:01:32;102499.97;;;0.90;87.11
19789;BME280;10054;59.332;18.244;2023-05-07T01:04:01;102498.20;;;0.84;87.09
19789;BME280;10054;59.332;18.244;2023-05-07T01:06:32;102501.63;;;0.80;87.68
19789;BME280;10054;59.332;18.244;2023-05-07T01:09:02;102495.97;;;0.76;87.77
19789;BME280;10054;59.332;18.244;2023-05-07T01:11:32;102506.37;;;0.73;87.76
19789;BME280;10054;59.332;18.244;2023-05-07T01:14:02;102500.72;;;0.71;87.38
19789;BME280;10054;59.332;18.244;2023-05-07T01:16:31;102496.37;;;0.68;87.23
19789;BME280;10054;59.332;18.244;2023-05-07T01:19:01;102503.69;;;0.64;87.30
19789;BME280;10054;59.332;18.244;2023-05-07T01:21:33;102495.45;;;0.61;87.58
19789;BME280;10054;59.332;18.244;2023-05-07T01:24:06;102497.17;;;0.61;87.80
19789;BME280;10054;59.332;18.244;2023-05-07T01:26:35;102498.88;;;0.59;87.77
19789;BME280;10054;59.332;18.244;2023-05-07T01:29:04;102495.39;;;0.55;87.62
19789;BME280;10054;59.332;18.244;2023-05-07T01:31:35;102499.26;;;0.52;87.74
19789;BME280;10054;59.332;18.244;2023-05-07T01:34:05;102505.72;;;0.49;87.80
19789;BME280;10054;59.332;18.244;2023-05-07T01:36:36;102505.25;;;0.45;87.84
19789;BME280;10054;59.332;18.244;2023-05-07T01:39:06;102500.89;;;0.41;87.80
19789;BME280;10054;59.332;18.244;2023-05-07T01:41:36;102506.48;;;0.38;87.83
19789;BME280;10054;59.332;18.244;2023-05-07T01:44:06;102504.30;;;0.36;88.18
19789;BME280;10054;59.332;18.244;2023-05-07T01:46:37;102506.88;;;0.34;88.35
19789;BME280;10054;59.332;18.244;2023-05-07T01:49:06;102505.55;;;0.31;88.42
19789;BME280;10054;59.332;18.244;2023-05-07T01:51:35;102513.31;;;0.29;88.71
19789;BME280;10054;59.332;18.244;2023-05-07T01:54:04;102512.43;;;0.27;88.73
19789;BME280;10054;59.332;18.244;2023-05-07T01:56:33;102512.43;;;0.27;88.79
19789;BME280;10054;59.332;18.244;2023-05-07T01:59:02;102513.72;;;0.26;88.81
19789;BME280;10054;59.332;18.244;2023-05-07T02:01:31;102510.20;;;0.21;89.21
19789;BME280;10054;59.332;18.244;2023-05-07T02:04:00;102511.91;;;0.19;89.55
19789;BME280;10054;59.332;18.244;2023-05-07T02:06:30;102513.17;;;0.16;89.86
19789;BME280;10054;59.332;18.244;2023-05-07T02:09:00;102515.31;;;0.13;89.88
19789;BME280;10054;59.332;18.244;2023-05-07T02:11:29;102517.45;;;0.11;90.01
19789;BME280;10054;59.332;18.244;2023-05-07T02:13:58;102514.84;;;0.11;90.20
19789;BME280;10054;59.332;18.244;2023-05-07T02:16:27;102518.30;;;0.10;90.24
19789;BME280;10054;59.332;18.244;2023-05-07T02:18:55;102521.73;;;0.07;90.54
19789;BME280;10054;59.332;18.244;2023-05-07T02:21:26;102523.44;;;0.05;90.89
19789;BME280;10054;59.332;18.244;2023-05-07T02:23:55;102519.08;;;0.03;91.01
19789;BME280;10054;59.332;18.244;2023-05-07T02:26:24;102524.68;;;0.00;90.86
19789;BME280;10054;59.332;18.244;2023-05-07T02:28:53;102520.09;;;0.15;95.07
19789;BME280;10054;59.332;18.244;2023-05-07T02:31:22;102521.83;;;0.16;94.93
19789;BME280;10054;59.332;18.244;2023-05-07T02:33:51;102524.36;;;0.10;94.19
19789;BME280;10054;59.332;18.244;2023-05-07T02:36:20;102518.67;;;0.05;93.79
19789;BME280;10054;59.332;18.244;2023-05-07T02:38:56;102524.68;;;0.00;93.26
19789;BME280;10054;59.332;18.244;2023-05-07T02:41:25;102523.79;;;-0.05;93.18
19789;BME280;10054;59.332;18.244;2023-05-07T02:43:55;102521.18;;;-0.06;92.88
19789;BME280;10054;59.332;18.244;2023-05-07T02:46:24;102517.67;;;-0.10;93.18
19789;BME280;10054;59.332;18.244;2023-05-07T02:48:55;102525.02;;;-0.11;93.67
19789;BME280;10054;59.332;18.244;2023-05-07T02:51:23;102530.20;;;-0.11;93.69
19789;BME280;10054;59.332;18.244;2023-05-07T02:53:54;102529.39;;;-0.07;93.64
19789;BME280;10054;59.332;18.244;2023-05-07T02:56:23;102528.09;;;-0.07;93.56
19789;BME280;10054;59.332;18.244;2023-05-07T02:58:51;102524.23;;;-0.04;93.37
19789;BME280;10054;59.332;18.244;2023-05-07T03:01:21;102527.72;;;-0.02;93.31
19789;BME280;10054;59.332;18.244;2023-05-07T03:03:51;102533.78;;;0.02;93.20
19789;BME280;10054;59.332;18.244;2023-05-07T03:06:22;102526.88;;;0.04;93.08
19789;BME280;10054;59.332;18.244;2023-05-07T03:08:51;102531.23;;;0.07;93.09
19789;BME280;10054;59.332;18.244;2023-05-07T03:11:20;102521.73;;;0.07;93.24
19789;BME280;10054;59.332;18.244;2023-05-07T03:13:49;102526.94;;;0.09;93.31
19789;BME280;10054;59.332;18.244;2023-05-07T03:16:18;102527.38;;;0.10;93.60
19789;BME280;10054;59.332;18.244;2023-05-07T03:18:47;102522.19;;;0.10;93.64
19789;BME280;10054;59.332;18.244;2023-05-07T03:21:16;102523.91;;;0.09;93.96
19789;BME280;10054;59.332;18.244;2023-05-07T03:23:44;102525.66;;;0.10;94.58
19789;BME280;10054;59.332;18.244;2023-05-07T03:26:13;102523.59;;;0.19;95.30
19789;BME280;10054;59.332;18.244;2023-05-07T03:28:43;102520.42;;;0.47;93.04
19789;BME280;10054;59.332;18.244;2023-05-07T03:31:13;102517.29;;;0.89;93.96
19789;BME280;10054;59.332;18.244;2023-05-07T03:33:57;102520.66;;;1.39;100.00
19789;BME280;10054;59.332;18.244;2023-05-07T03:36:23;102519.48;;;1.68;97.54
19789;BME280;10054;59.332;18.244;2023-05-07T03:38:54;102526.09;;;1.91;94.90
19789;BME280;10054;59.332;18.244;2023-05-07T03:41:26;102523.53;;;2.05;92.45
19789;BME280;10054;59.332;18.244;2023-05-07T03:43:55;102530.94;;;2.16;89.37
19789;BME280;10054;59.332;18.244;2023-05-07T03:46:24;102530.95;;;2.22;87.71
19789;BME280;10054;59.332;18.244;2023-05-07T03:48:54;102533.12;;;2.33;88.27
19789;BME280;10054;59.332;18.244;2023-05-07T03:51:22;102528.37;;;2.51;88.01
19789;BME280;10054;59.332;18.244;2023-05-07T03:53:52;102533.61;;;2.71;86.64
19789;BME280;10054;59.332;18.244;2023-05-07T03:56:21;102529.70;;;2.95;86.96
19789;BME280;10054;59.332;18.244;2023-05-07T03:58:51;102533.56;;;3.19;86.33
19789;BME280;10054;59.332;18.244;2023-05-07T04:01:21;102535.69;;;3.47;85.87
19789;BME280;10054;59.332;18.244;2023-05-07T04:03:51;102536.00;;;3.76;84.41
19789;BME280;10054;59.332;18.244;2023-05-07T04:06:21;102528.91;;;4.05;84.09
19789;BME280;10054;59.332;18.244;2023-05-07T04:08:50;102531.34;;;4.37;83.52
19789;BME280;10054;59.332;18.244;2023-05-07T04:11:18;102538.08;;;4.67;83.29
19789;BME280;10054;59.332;18.244;2023-05-07T04:13:47;102530.88;;;4.97;83.88
19789;BME280;10054;59.332;18.244;2023-05-07T04:16:17;102532.30;;;5.26;84.30
19789;BME280;10054;59.332;18.244;2023-05-07T04:18:46;102531.19;;;5.50;83.99
19789;BME280;10054;59.332;18.244;2023-05-07T04:21:20;102530.94;;;5.72;85.40
19789;BME280;10054;59.332;18.244;2023-05-07T04:23:50;102533.25;;;5.98;84.69
19789;BME280;10054;59.332;18.244;2023-05-07T04:26:19;102537.30;;;6.21;85.25
19789;BME280;10054;59.332;18.244;2023-05-07T04:28:48;102538.30;;;6.43;83.71
19789;BME280;10054;59.332;18.244;2023-05-07T04:31:18;102531.56;;;6.55;83.82
19789;BME280;10054;59.332;18.244;2023-05-07T04:33:48;102535.16;;;6.75;84.10
19789;BME280;10054;59.332;18.244;2023-05-07T04:36:18;102529.64;;;6.91;82.78
19789;BME280;10054;59.332;18.244;2023-05-07T04:38:51;102538.04;;;7.12;81.80
19789;BME280;10054;59.332;18.244;2023-05-07T04:41:22;102538.58;;;7.31;81.29
19789;BME280;10054;59.332;18.244;2023-05-07T04:43:51;102535.43;;;7.56;80.58
19789;BME280;10054;59.332;18.244;2023-05-07T04:46:21;102539.07;;;7.72;80.02
19789;BME280;10054;59.332;18.244;2023-05-07T04:48:52;102540.88;;;7.90;78.83
19789;BME280;10054;59.332;18.244;2023-05-07T04:51:20;102541.84;;;8.07;77.87
19789;BME280;10054;59.332;18.244;2023-05-07T04:53:49;102552.09;;;8.18;77.56
19789;BME280;10054;59.332;18.244;2023-05-07T04:56:18;102544.91;;;8.26;77.27
19789;BME280;10054;59.332;18.244;2023-05-07T04:58:48;102547.16;;;8.44;76.92
19789;BME280;10054;59.332;18.244;2023-05-07T05:01:18;102550.89;;;8.53;75.42
19789;BME280;10054;59.332;18.244;2023-05-07T05:03:48;102550.33;;;8.59;75.42
19789;BME280;10054;59.332;18.244;2023-05-07T05:06:17;102555.94;;;8.63;73.91
19789;BME280;10054;59.332;18.244;2023-05-07T05:08:46;102555.66;;;8.55;74.42
19789;BME280;10054;59.332;18.244;2023-05-07T05:11:15;102559.86;;;8.45;75.04
19789;BME280;10054;59.332;18.244;2023-05-07T05:13:44;102561.66;;;8.43;75.83
19789;BME280;10054;59.332;18.244;2023-05-07T05:16:16;102553.77;;;8.43;76.25
19789;BME280;10054;59.332;18.244;2023-05-07T05:18:45;102553.97;;;8.53;75.39
19789;BME280;10054;59.332;18.244;2023-05-07T05:21:15;102557.11;;;8.69;75.50
19789;BME280;10054;59.332;18.244;2023-05-07T05:23:45;102560.23;;;8.84;74.11
19789;BME280;10054;59.332;18.244;2023-05-07T05:26:15;102562.20;;;8.93;73.53
19789;BME280;10054;59.332;18.244;2023-05-07T05:28:44;102563.25;;;8.87;73.13
19789;BME280;10054;59.332;18.244;2023-05-07T05:31:14;102558.36;;;9.06;73.20
19789;BME280;10054;59.332;18.244;2023-05-07T05:33:43;102556.48;;;9.11;72.26
19789;BME280;10054;59.332;18.244;2023-05-07T05:36:12;102560.64;;;9.19;71.76
19789;BME280;10054;59.332;18.244;2023-05-07T05:38:42;102560.20;;;9.36;71.23
19789;BME280;10054;59.332;18.244;2023-05-07T05:41:12;102562.97;;;9.48;70.57
19789;BME280;10054;59.332;18.244;2023-05-07T05:43:40;102564.53;;;9.55;70.40
19789;BME280;10054;59.332;18.244;2023-05-07T05:46:10;102558.60;;;9.63;69.82
19789;BME280;10054;59.332;18.244;2023-05-07T05:48:39;102563.50;;;9.75;69.32
19789;BME280;10054;59.332;18.244;2023-05-07T05:51:09;102565.02;;;9.84;68.30
19789;BME280;10054;59.332;18.244;2023-05-07T05:53:38;102560.21;;;9.98;68.33
19789;BME280;10054;59.332;18.244;2023-05-07T05:56:07;102561.89;;;10.01;67.47
19789;BME280;10054;59.332;18.244;2023-05-07T05:58:37;102561.80;;;10.04;66.99
19789;BME280;10054;59.332;18.244;2023-05-07T06:01:07;102560.98;;;10.02;66.65
19789;BME280;10054;59.332;18.244;2023-05-07T06:03:40;102562.48;;;10.10;66.06
19789;BME280;10054;59.332;18.244;2023-05-07T06:06:10;102560.48;;;10.20;66.00
19789;BME280;10054;59.332;18.244;2023-05-07T06:08:39;102560.42;;;10.36;64.29
19789;BME280;10054;59.332;18.244;2023-05-07T06:11:09;102560.47;;;10.48;63.93
19789;BME280;10054;59.332;18.244;2023-05-07T06:13:38;102568.10;;;10.57;62.74
19789;BME280;10054;59.332;18.244;2023-05-07T06:16:07;102564.38;;;10.49;61.97
19789;BME280;10054;59.332;18.244;2023-05-07T06:18:37;102558.55;;;10.40;61.89
19789;BME280;10054;59.332;18.244;2023-05-07T06:21:07;102562.15;;;10.37;62.09
19789;BME280;10054;59.332;18.244;2023-05-07T06:23:36;102563.66;;;10.31;62.05
19789;BME280;10054;59.332;18.244;2023-05-07T06:26:05;102563.66;;;10.31;62.05
19789;BME280;10054;59.332;18.244;2023-05-07T06:28:35;102565.07;;;10.41;61.48
19789;BME280;10054;59.332;18.244;2023-05-07T06:31:28;102571.62;;;10.30;59.91
19789;BME280;10054;59.332;18.244;2023-05-07T06:33:57;102569.20;;;10.37;61.90
19789;BME280;10054;59.332;18.244;2023-05-07T06:36:28;102569.20;;;10.37;61.90
19789;BME280;10054;59.332;18.244;2023-05-07T06:38:58;102572.13;;;10.41;61.11
19789;BME280;10054;59.332;18.244;2023-05-07T06:41:27;102566.34;;;10.43;60.01
19789;BME280;10054;59.332;18.244;2023-05-07T06:43:57;102566.34;;;10.43;60.01
19789;BME280;10054;59.332;18.244;2023-05-07T06:46:39;102560.92;;;10.47;61.41
19789;BME280;10054;59.332;18.244;2023-05-07T06:49:10;102566.52;;;10.51;59.85
19789;BME280;10054;59.332;18.244;2023-05-07T06:51:39;102571.89;;;10.35;60.21
19789;BME280;10054;59.332;18.244;2023-05-07T06:54:08;102571.89;;;10.35;60.21
19789;BME280;10054;59.332;18.244;2023-05-07T06:56:38;102570.25;;;10.31;59.85
19789;BME280;10054;59.332;18.244;2023-05-07T06:59:08;102565.44;;;10.44;60.42
19789;BME280;10054;59.332;18.244;2023-05-07T07:01:39;102561.86;;;10.60;58.86
19789;BME280;10054;59.332;18.244;2023-05-07T07:04:09;102561.86;;;10.60;58.86
19789;BME280;10054;59.332;18.244;2023-05-07T07:06:38;102559.75;;;10.30;58.45
19789;BME280;10054;59.332;18.244;2023-05-07T07:09:08;102556.20;;;10.31;57.85
19789;BME280;10054;59.332;18.244;2023-05-07T07:11:37;102556.20;;;10.31;57.85
19789;BME280;10054;59.332;18.244;2023-05-07T07:14:06;102569.27;;;10.19;57.11
19789;BME280;10054;59.332;18.244;2023-05-07T07:16:37;102569.27;;;10.19;57.11
19789;BME280;10054;59.332;18.244;2023-05-07T07:19:06;102572.48;;;9.99;57.60
19789;BME280;10054;59.332;18.244;2023-05-07T07:21:34;102570.06;;;9.92;58.46
19789;BME280;10054;59.332;18.244;2023-05-07T07:24:04;102564.53;;;10.01;58.94
19789;BME280;10054;59.332;18.244;2023-05-07T07:26:33;102564.89;;;10.19;59.43
19789;BME280;10054;59.332;18.244;2023-05-07T07:29:02;102567.75;;;10.27;56.36
19789;BME280;10054;59.332;18.244;2023-05-07T07:31:31;102543.41;;;10.32;56.57
19789;BME280;10054;59.332;18.244;2023-05-07T07:34:00;102553.78;;;10.38;55.58
19789;BME280;10054;59.332;18.244;2023-05-07T07:36:29;102537.68;;;10.45;54.80
19789;BME280;10054;59.332;18.244;2023-05-07T07:38:58;102555.81;;;10.56;55.30
19789;BME280;10054;59.332;18.244;2023-05-07T07:41:29;102556.05;;;10.76;55.00
19789;BME280;10054;59.332;18.244;2023-05-07T07:43:58;102553.62;;;10.97;54.71
19789;BME280;10054;59.332;18.244;2023-05-07T07:46:27;102555.55;;;11.16;53.47
19789;BME280;10054;59.332;18.244;2023-05-07T07:48:56;102549.95;;;11.26;53.00
19789;BME280;10054;59.332;18.244;2023-05-07T07:51:27;102546.16;;;11.46;53.12
19789;BME280;10054;59.332;18.244;2023-05-07T07:53:56;102538.53;;;11.50;50.01
19789;BME280;10054;59.332;18.244;2023-05-07T07:56:26;102543.33;;;11.39;51.52
19789;BME280;10054;59.332;18.244;2023-05-07T07:58:55;102548.41;;;11.45;51.79
19789;BME280;10054;59.332;18.244;2023-05-07T08:01:25;102542.49;;;11.50;52.12
19789;BME280;10054;59.332;18.244;2023-05-07T08:03:54;102533.46;;;11.44;51.84
19789;BME280;10054;59.332;18.244;2023-05-07T08:06:23;102543.22;;;11.42;52.20
19789;BME280;10054;59.332;18.244;2023-05-07T08:08:53;102536.23;;;11.28;52.30
19789;BME280;10054;59.332;18.244;2023-05-07T08:11:23;102537.31;;;11.10;53.67
19789;BME280;10054;59.332;18.244;2023-05-07T08:13:53;102537.00;;;11.06;52.71
19789;BME280;10054;59.332;18.244;2023-05-07T08:16:22;102538.53;;;11.00;52.67
19789;BME280;10054;59.332;18.244;2023-05-07T08:18:52;102546.61;;;10.82;53.27
19789;BME280;10054;59.332;18.244;2023-05-07T08:21:21;102541.13;;;10.89;54.80
19789;BME280;10054;59.332;18.244;2023-05-07T08:23:51;102537.02;;;10.93;54.72
19789;BME280;10054;59.332;18.244;2023-05-07T08:26:19;102536.25;;;10.90;53.80
19789;BME280;10054;59.332;18.244;2023-05-07T08:28:48;102534.56;;;10.74;54.55
19789;BME280;10054;59.332;18.244;2023-05-07T08:31:17;102539.95;;;10.84;54.32
19789;BME280;10054;59.332;18.244;2023-05-07T08:33:46;102524.37;;;10.90;53.60
19789;BME280;10054;59.332;18.244;2023-05-07T08:36:14;102524.47;;;11.00;53.74
19789;BME280;10054;59.332;18.244;2023-05-07T08:38:43;102531.36;;;11.29;54.21
19789;BME280;10054;59.332;18.244;2023-05-07T08:41:13;102534.19;;;11.36;53.41
19789;BME280;10054;59.332;18.244;2023-05-07T08:43:46;102531.79;;;11.41;51.65
19789;BME280;10054;59.332;18.244;2023-05-07T08:46:17;102544.03;;;11.44;52.34
19789;BME280;10054;59.332;18.244;2023-05-07T08:48:51;102530.50;;;11.28;50.96
19789;BME280;10054;59.332;18.244;2023-05-07T08:51:21;102536.34;;;11.13;50.15
19789;BME280;10054;59.332;18.244;2023-05-07T08:53:50;102528.37;;;11.01;51.00
19789;BME280;10054;59.332;18.244;2023-05-07T08:56:24;102532.18;;;11.06;52.03
19789;BME280;10054;59.332;18.244;2023-05-07T08:58:53;102527.95;;;11.13;50.93
19789;BME280;10054;59.332;18.244;2023-05-07T09:01:24;102528.58;;;11.20;50.30
19789;BME280;10054;59.332;18.244;2023-05-07T09:03:54;102525.31;;;11.13;49.71
19789;BME280;10054;59.332;18.244;2023-05-07T09:06:23;102524.64;;;11.32;51.78
19789;BME280;10054;59.332;18.244;2023-05-07T09:08:54;102526.05;;;11.42;48.99
19789;BME280;10054;59.332;18.244;2023-05-07T09:11:25;102520.47;;;11.38;48.27
19789;BME280;10054;59.332;18.244;2023-05-07T09:13:56;102526.02;;;11.30;49.31
19789;BME280;10054;59.332;18.244;2023-05-07T09:16:27;102520.48;;;11.49;49.79
19789;BME280;10054;59.332;18.244;2023-05-07T09:18:59;102523.42;;;11.53;49.92
19789;BME280;10054;59.332;18.244;2023-05-07T09:21:28;102520.91;;;11.62;48.85
19789;BME280;10054;59.332;18.244;2023-05-07T09:23:59;102516.59;;;11.60;49.23
19789;BME280;10054;59.332;18.244;2023-05-07T09:26:29;102520.39;;;11.64;49.18
19789;BME280;10054;59.332;18.244;2023-05-07T09:28:59;102518.61;;;11.28;48.60
19789;BME280;10054;59.332;18.244;2023-05-07T09:31:29;102521.65;;;11.29;48.99
19789;BME280;10054;59.332;18.244;2023-05-07T09:33:58;102524.27;;;11.42;49.42
19789;BME280;10054;59.332;18.244;2023-05-07T09:36:29;102522.67;;;11.50;48.39
19789;BME280;10054;59.332;18.244;2023-05-07T09:38:59;102516.30;;;11.56;48.34
19789;BME280;10054;59.332;18.244;2023-05-07T09:41:30;102518.70;;;11.50;46.75
19789;BME280;10054;59.332;18.244;2023-05-07T09:44:10;102521.13;;;11.56;49.11
19789;BME280;10054;59.332;18.244;2023-05-07T09:46:42;102528.44;;;11.61;49.45
19789;BME280;10054;59.332;18.244;2023-05-07T09:49:20;102522.98;;;11.66;49.23
19789;BME280;10054;59.332;18.244;2023-05-07T09:51:51;102525.75;;;11.74;48.10
19789;BME280;10054;59.332;18.244;2023-05-07T09:54:22;102517.73;;;11.77;47.19
19789;BME280;10054;59.332;18.244;2023-05-07T09:56:52;102515.61;;;11.87;47.78
19789;BME280;10054;59.332;18.244;2023-05-07T09:59:24;102517.97;;;11.83;46.04
19789;BME280;10054;59.332;18.244;2023-05-07T10:01:53;102514.45;;;11.82;48.29
19789;BME280;10054;59.332;18.244;2023-05-07T10:04:23;102524.14;;;11.94;48.96
19789;BME280;10054;59.332;18.244;2023-05-07T10:06:54;102521.95;;;12.05;48.24
19789;BME280;10054;59.332;18.244;2023-05-07T10:09:23;102516.66;;;12.05;48.86
19789;BME280;10054;59.332;18.244;2023-05-07T10:11:52;102516.42;;;12.11;48.86
19789;BME280;10054;59.332;18.244;2023-05-07T10:14:22;102517.46;;;12.07;48.58
19789;BME280;10054;59.332;18.244;2023-05-07T10:16:53;102510.84;;;12.07;48.98
19789;BME280;10054;59.332;18.244;2023-05-07T10:19:22;102508.90;;;12.00;48.25
19789;BME280;10054;59.332;18.244;2023-05-07T10:21:55;102512.75;;;12.03;48.28
19789;BME280;10054;59.332;18.244;2023-05-07T10:24:31;102513.42;;;11.87;47.64
19789;BME280;10054;59.332;18.244;2023-05-07T10:27:01;102504.65;;;11.73;47.65
19789;BME280;10054;59.332;18.244;2023-05-07T10:32:18;102499.45;;;11.83;49.63
19789;BME280;10054;59.332;18.244;2023-05-07T10:34:45;102502.46;;;11.96;48.59
19789;BME280;10054;59.332;18.244;2023-05-07T10:37:16;102498.66;;;12.03;49.13
19789;BME280;10054;59.332;18.244;2023-05-07T10:39:46;102503.15;;;12.01;48.34
19789;BME280;10054;59.332;18.244;2023-05-07T10:42:15;102508.16;;;11.97;47.06
19789;BME280;10054;59.332;18.244;2023-05-07T10:44:45;102500.38;;;11.82;48.91
19789;BME280;10054;59.332;18.244;2023-05-07T10:47:17;102498.16;;;11.70;48.98
19789;BME280;10054;59.332;18.244;2023-05-07T10:52:23;102488.13;;;11.79;47.92
19789;BME280;10054;59.332;18.244;2023-05-07T10:57:48;102490.67;;;11.93;48.56
19789;BME280;10054;59.332;18.244;2023-05-07T11:05:36;102500.17;;;11.75;47.77
19789;BME280;10054;59.332;18.244;2023-05-07T11:08:10;102486.89;;;11.65;48.32
19789;BME280;10054;59.332;18.244;2023-05-07T11:10:56;102492.75;;;11.73;48.72
19789;BME280;10054;59.332;18.244;2023-05-07T11:13:44;102495.11;;;11.69;48.20
19789;BME280;10054;59.332;18.244;2023-05-07T11:16:18;102497.11;;;11.62;49.02
19789;BME280;10054;59.332;18.244;2023-05-07T11:18:52;102490.63;;;11.71;48.87
19789;BME280;10054;59.332;18.244;2023-05-07T11:21:39;102492.33;;;11.85;48.87
19789;BME280;10054;59.332;18.244;2023-05-07T11:24:10;102486.83;;;11.90;47.62
19789;BME280;10054;59.332;18.244;2023-05-07T11:26:50;102492.38;;;11.83;47.56
19789;BME280;10054;59.332;18.244;2023-05-07T11:29:22;102485.62;;;11.75;47.25
19789;BME280;10054;59.332;18.244;2023-05-07T11:31:55;102493.07;;;11.77;47.55
19789;BME280;10054;59.332;18.244;2023-05-07T11:34:27;102484.77;;;11.74;47.66
19789;BME280;10054;59.332;18.244;2023-05-07T11:36:59;102484.56;;;11.80;47.76
19789;BME280;10054;59.332;18.244;2023-05-07T11:39:35;102487.00;;;11.73;47.01
19789;BME280;10054;59.332;18.244;2023-05-07T11:42:04;102481.59;;;11.65;47.76
19789;BME280;10054;59.332;18.244;2023-05-07T11:44:44;102487.34;;;11.64;47.82
19789;BME280;10054;59.332;18.244;2023-05-07T11:47:20;102485.56;;;11.65;47.20
19789;BME280;10054;59.332;18.244;2023-05-07T11:49:53;102479.19;;;11.59;47.92
19789;BME280;10054;59.332;18.244;2023-05-07T11:52:23;102490.80;;;11.66;47.90
19789;BME280;10054;59.332;18.244;2023-05-07T11:54:57;102483.38;;;11.76;47.98
19789;BME280;10054;59.332;18.244;2023-05-07T11:57:27;102483.38;;;11.64;46.88
19789;BME280;10054;59.332;18.244;2023-05-07T11:59:57;102480.11;;;11.69;48.11
19789;BME280;10054;59.332;18.244;2023-05-07T12:02:26;102474.98;;;11.65;47.71
19789;BME280;10054;59.332;18.244;2023-05-07T12:04:55;102476.58;;;11.82;47.56
19789;BME280;10054;59.332;18.244;2023-05-07T12:07:24;102472.73;;;11.89;46.94
19789;BME280;10054;59.332;18.244;2023-05-07T12:09:54;102471.24;;;11.94;46.81
19789;BME280;10054;59.332;18.244;2023-05-07T12:12:23;102466.28;;;11.86;46.72
19789;BME280;10054;59.332;18.244;2023-05-07T12:14:52;102466.52;;;11.80;46.92
19789;BME280;10054;59.332;18.244;2023-05-07T12:17:21;102463.27;;;11.72;47.70
19789;BME280;10054;59.332;18.244;2023-05-07T12:19:50;102468.92;;;11.86;48.38
19789;BME280;10054;59.332;18.244;2023-05-07T12:22:20;102466.93;;;11.91;47.82
19789;BME280;10054;59.332;18.244;2023-05-07T12:24:57;102463.42;;;11.91;47.32
19789;BME280;10054;59.332;18.244;2023-05-07T12:27:20;102460.78;;;11.91;47.63
19789;BME280;10054;59.332;18.244;2023-05-07T12:29:50;102461.80;;;11.88;47.02
19789;BME280;10054;59.332;18.244;2023-05-07T12:32:20;102460.30;;;11.81;46.61
19789;BME280;10054;59.332;18.244;2023-05-07T12:34:53;102453.15;;;11.71;46.33
19789;BME280;10054;59.332;18.244;2023-05-07T12:37:25;102466.20;;;11.76;47.52
19789;BME280;10054;59.332;18.244;2023-05-07T12:40:08;102459.46;;;11.91;47.73
19789;BME280;10054;59.332;18.244;2023-05-07T12:42:39;102460.72;;;11.92;46.84
19789;BME280;10054;59.332;18.244;2023-05-07T12:45:16;102462.87;;;12.16;47.68
19789;BME280;10054;59.332;18.244;2023-05-07T12:47:46;102460.10;;;12.19;46.24
19789;BME280;10054;59.332;18.244;2023-05-07T12:50:15;102456.94;;;12.21;46.13
19789;BME280;10054;59.332;18.244;2023-05-07T12:52:47;102454.97;;;12.26;45.96
19789;BME280;10054;59.332;18.244;2023-05-07T12:55:16;102451.48;;;12.36;46.55
19789;BME280;10054;59.332;18.244;2023-05-07T12:57:49;102453.11;;;12.50;46.05
19789;BME280;10054;59.332;18.244;2023-05-07T13:00:34;102453.05;;;12.52;45.59
19789;BME280;10054;59.332;18.244;2023-05-07T13:03:03;102444.70;;;12.50;45.35
19789;BME280;10054;59.332;18.244;2023-05-07T13:05:32;102453.84;;;12.54;46.24
19789;BME280;10054;59.332;18.244;2023-05-07T13:08:02;102455.15;;;12.64;46.14
19789;BME280;10054;59.332;18.244;2023-05-07T13:10:31;102450.59;;;12.67;45.55
19789;BME280;10054;59.332;18.244;2023-05-07T13:13:01;102447.28;;;12.72;44.67
19789;BME280;10054;59.332;18.244;2023-05-07T13:15:31;102451.31;;;12.71;45.61